Terminal Aerodrome Forecast
Issued by NWS Lake Charles, LA

Home | Current Version | Previous Version | Text Only | Print | Product List | Glossary On
Versions: 1 2 3 4 5 6 7 8 9 10 11 12 13 14 15 16 17 18
000
FTUS44 KLCH 231100 AAA
TAFLFT
TAF AMD
KLFT 231149Z 2312/2412 17008KT 4SM RA BR SCT007 BKN045 OVC060
      TEMPO 2312/2314 SCT014 BKN035 OVC060
     FM231400 22010KT P6SM FEW045 BKN060 OVC090
     FM231600 23011KT P6SM FEW045 OVC200=

USA.gov is the U.S. government's official web portal to all federal, state and local government web resources and services.